createdAt,value
2022-08-01T00:01:57.245Z,3.45
2022-08-01T00:04:23.813Z,5.38
2022-08-01T00:06:50.277Z,5.03
2022-08-01T00:09:24.259Z,2.75
2022-08-01T00:11:59.440Z,2.78
2022-08-01T00:14:31.990Z,3.67
2022-08-01T00:17:02.441Z,4.07
2022-08-01T00:19:31.962Z,3.83
2022-08-01T00:21:58.518Z,4.32
2022-08-01T00:24:25.008Z,4.07
2022-08-01T00:26:51.524Z,4.53
2022-08-01T00:30:12.032Z,4.07
2022-08-01T00:32:05.149Z,3.75
2022-08-01T00:34:32.282Z,2.70
2022-08-01T00:36:58.761Z,3.42
2022-08-01T00:39:25.333Z,3.40
2022-08-01T00:41:59.779Z,2.53
2022-08-01T00:44:27.415Z,5.75
2022-08-01T00:46:53.980Z,3.25
2022-08-01T00:49:20.557Z,2.45
2022-08-01T00:51:47.435Z,4.13
2022-08-01T00:54:16.648Z,4.75
2022-08-01T00:56:44.514Z,4.97
2022-08-01T00:59:14.000Z,4.53
2022-08-01T01:01:46.493Z,3.00
2022-08-01T01:04:13.942Z,4.32
2022-08-01T01:06:52.502Z,4.75
2022-08-01T01:09:35.822Z,4.30
2022-08-01T01:12:22.737Z,3.67
2022-08-01T01:15:07.588Z,4.10
2022-08-01T01:17:51.160Z,6.15
2022-08-01T01:20:18.890Z,4.20
2022-08-01T01:22:54.590Z,3.45
2022-08-01T01:25:36.355Z,4.72
2022-08-01T01:28:11.095Z,4.97
2022-08-01T01:30:42.136Z,3.55
2022-08-01T01:33:11.364Z,3.58
2022-08-01T01:35:44.051Z,4.82
2022-08-01T01:38:25.238Z,5.32
2022-08-01T01:40:53.676Z,5.07
2022-08-01T01:43:21.570Z,6.43
2022-08-01T01:45:55.850Z,4.25
2022-08-01T01:48:24.469Z,3.13
2022-08-01T01:50:53.409Z,4.10
2022-08-01T01:53:22.737Z,4.35
2022-08-01T01:55:52.939Z,4.75
2022-08-01T01:58:21.484Z,3.58
2022-08-01T02:00:50.664Z,5.05
2022-08-01T02:03:18.801Z,3.88
2022-08-01T02:05:46.016Z,4.55
2022-08-01T02:08:16.258Z,5.47
2022-08-01T02:11:04.667Z,5.15
2022-08-01T02:13:37.234Z,4.93
2022-08-01T02:16:04.574Z,4.57
2022-08-01T02:18:31.246Z,4.43
2022-08-01T02:20:59.859Z,5.95
2022-08-01T02:23:32.392Z,4.35
2022-08-01T02:26:10.905Z,4.85
2022-08-01T02:29:16.012Z,4.85
2022-08-01T02:31:48.001Z,4.13
2022-08-01T02:34:17.821Z,5.63
2022-08-01T02:36:46.878Z,5.18
2022-08-01T02:39:15.778Z,7.85
2022-08-01T02:41:46.271Z,5.43
2022-08-01T02:44:19.968Z,4.65
2022-08-01T02:46:57.775Z,5.60
2022-08-01T02:49:27.207Z,6.88
2022-08-01T02:51:55.789Z,5.38
2022-08-01T02:54:23.722Z,5.05
2022-08-01T02:56:51.487Z,4.35
2022-08-01T02:59:22.356Z,4.57
2022-08-01T03:01:50.096Z,4.97
2022-08-01T03:04:18.851Z,4.25
2022-08-01T03:06:45.987Z,5.15
2022-08-01T03:09:13.509Z,4.57
2022-08-01T03:11:42.623Z,6.53
2022-08-01T03:14:11.076Z,6.68
2022-08-01T03:16:40.792Z,4.95
2022-08-01T03:19:10.751Z,4.65
2022-08-01T03:21:39.862Z,5.45
2022-08-01T03:24:08.498Z,5.18
2022-08-01T03:26:36.735Z,5.25
2022-08-01T03:29:10.821Z,5.57
2022-08-01T03:31:39.343Z,5.88
2022-08-01T03:34:06.919Z,5.43
2022-08-01T03:36:38.210Z,4.38
2022-08-01T03:39:07.679Z,7.47
2022-08-01T03:41:40.361Z,5.22
2022-08-01T03:44:14.375Z,5.88
2022-08-01T03:46:47.564Z,4.82
2022-08-01T03:49:24.057Z,5.03
2022-08-01T03:51:51.861Z,5.22
2022-08-01T03:54:22.672Z,4.75
2022-08-01T03:56:50.971Z,5.18
2022-08-01T03:59:18.718Z,4.65
2022-08-01T04:01:48.835Z,4.80
2022-08-01T04:04:15.920Z,6.85
2022-08-01T04:06:44.878Z,6.35
2022-08-01T04:09:13.753Z,4.38
2022-08-01T04:11:41.931Z,4.95
2022-08-01T04:14:09.407Z,4.43
2022-08-01T04:16:36.234Z,5.63
2022-08-01T04:19:03.061Z,6.60
2022-08-01T04:21:32.612Z,4.40
2022-08-01T04:24:04.399Z,4.90
2022-08-01T04:26:33.081Z,5.53
2022-08-01T04:29:03.589Z,5.32
2022-08-01T04:31:34.268Z,5.72
2022-08-01T04:34:05.709Z,5.53
2022-08-01T04:36:36.088Z,4.45
2022-08-01T04:39:04.895Z,5.63
2022-08-01T04:41:33.383Z,5.15
2022-08-01T04:44:00.444Z,4.22
2022-08-01T04:46:29.552Z,4.57
2022-08-01T04:48:57.388Z,3.55
2022-08-01T04:51:24.080Z,7.60
2022-08-01T04:53:52.131Z,9.95
2022-08-01T04:56:21.855Z,6.05
2022-08-01T04:58:48.628Z,6.22
2022-08-01T05:01:15.275Z,3.65
2022-08-01T05:03:41.907Z,3.47
2022-08-01T05:06:08.451Z,5.45
2022-08-01T05:08:35.308Z,5.47
2022-08-01T05:11:02.312Z,4.53
2022-08-01T05:13:28.948Z,8.07
2022-08-01T05:15:55.483Z,5.55
2022-08-01T05:18:28.268Z,4.53
2022-08-01T05:20:55.442Z,5.10
2022-08-01T05:23:36.458Z,5.32
2022-08-01T05:26:08.944Z,5.80
2022-08-01T05:28:36.312Z,5.15
2022-08-01T05:31:03.563Z,5.95
2022-08-01T05:33:30.081Z,7.55
2022-08-01T05:35:56.606Z,5.88
2022-08-01T05:38:23.085Z,5.10
2022-08-01T05:40:49.646Z,5.95
2022-08-01T05:43:16.133Z,4.50
2022-08-01T05:45:42.736Z,6.13
2022-08-01T05:48:09.373Z,5.55
2022-08-01T05:50:35.921Z,7.05
2022-08-01T05:53:02.415Z,5.40
2022-08-01T05:55:29.149Z,6.93
2022-08-01T05:57:55.635Z,4.53
2022-08-01T06:00:22.346Z,6.55
2022-08-01T06:02:48.905Z,8.90
2022-08-01T06:05:15.436Z,4.35
2022-08-01T06:07:41.983Z,7.10
2022-08-01T06:10:09.325Z,5.75
2022-08-01T06:12:36.878Z,4.18
2022-08-01T06:15:05.140Z,3.08
2022-08-01T06:17:31.657Z,8.60
2022-08-01T06:19:58.245Z,4.03
2022-08-01T06:22:24.714Z,4.20
2022-08-01T06:24:52.443Z,4.70
2022-08-01T06:27:22.250Z,2.55
2022-08-01T06:29:51.283Z,4.78
2022-08-01T06:32:27.567Z,3.53
2022-08-01T06:34:55.651Z,3.45
2022-08-01T06:37:23.219Z,3.47
2022-08-01T06:39:50.757Z,3.70
2022-08-01T06:42:18.344Z,3.70
2022-08-01T06:44:45.206Z,3.10
2022-08-01T06:47:11.814Z,5.13
2022-08-01T06:49:38.331Z,3.58
2022-08-01T06:52:05.641Z,2.50
2022-08-01T06:54:32.356Z,2.50
2022-08-01T06:56:58.884Z,2.85
2022-08-01T06:59:25.626Z,2.10
2022-08-01T07:01:52.118Z,2.25
2022-08-01T07:04:18.694Z,2.85
2022-08-01T07:06:45.201Z,2.95
2022-08-01T07:09:14.457Z,2.40
2022-08-01T07:11:41.593Z,2.25
2022-08-01T07:14:08.270Z,1.88
2022-08-01T07:16:34.852Z,2.35
2022-08-01T07:19:01.345Z,1.63
2022-08-01T07:21:38.961Z,1.85
2022-08-01T07:24:13.929Z,1.17
2022-08-01T07:26:53.984Z,1.63
2022-08-01T07:29:24.375Z,1.63
2022-08-01T07:31:52.441Z,2.55
2022-08-01T07:34:18.918Z,3.50
2022-08-01T07:36:46.453Z,1.30
2022-08-01T07:39:12.908Z,3.53
2022-08-01T07:41:52.763Z,1.55
2022-08-01T07:44:28.113Z,2.75
2022-08-01T07:46:55.586Z,2.00
2022-08-01T07:49:22.994Z,1.98
2022-08-01T07:52:03.534Z,1.65
2022-08-01T07:54:37.162Z,1.50
2022-08-01T07:57:04.390Z,4.75
2022-08-01T07:59:30.968Z,3.35
2022-08-01T08:01:57.761Z,1.65
2022-08-01T08:04:24.357Z,1.70
2022-08-01T08:06:51.405Z,1.30
2022-08-01T08:09:18.192Z,1.25
2022-08-01T08:11:47.804Z,1.40
2022-08-01T08:14:15.063Z,1.55
2022-08-01T08:16:41.609Z,1.48
2022-08-01T08:19:08.126Z,2.35
2022-08-01T08:21:35.226Z,1.65
2022-08-01T08:24:20.066Z,2.30
2022-08-01T08:26:55.686Z,2.75
2022-08-01T08:29:23.102Z,1.90
2022-08-01T08:31:51.736Z,2.75
2022-08-01T08:34:19.956Z,2.05
2022-08-01T08:36:47.863Z,1.35
2022-08-01T08:39:14.854Z,2.63
2022-08-01T08:41:41.823Z,2.38
2022-08-01T08:44:10.782Z,3.97
2022-08-01T08:46:52.790Z,2.67
2022-08-01T08:49:35.916Z,1.20
2022-08-01T08:52:04.423Z,1.88
2022-08-01T08:54:32.754Z,2.35
2022-08-01T08:57:02.714Z,2.85
2022-08-01T08:59:29.717Z,2.00
2022-08-01T09:01:57.632Z,4.40
2022-08-01T09:04:26.747Z,3.05
2022-08-01T09:06:54.641Z,2.42
2022-08-01T09:09:21.259Z,3.55
2022-08-01T09:11:57.665Z,4.70
2022-08-01T09:14:36.259Z,3.90
2022-08-01T09:17:09.504Z,4.68
2022-08-01T09:19:44.631Z,3.03
2022-08-01T09:22:13.632Z,4.22
2022-08-01T09:24:41.571Z,5.55
2022-08-01T09:27:22.829Z,5.18
2022-08-01T09:30:00.441Z,5.63
2022-08-01T09:32:34.334Z,3.13
2022-08-01T09:35:43.345Z,4.22
2022-08-01T09:38:20.990Z,6.47
2022-08-01T09:40:58.057Z,6.40
2022-08-01T09:43:27.893Z,6.20
2022-08-01T09:45:55.599Z,7.30
2022-08-01T09:48:28.602Z,8.07
2022-08-01T09:51:00.854Z,4.20
2022-08-01T09:53:52.671Z,7.35
2022-08-01T09:56:22.144Z,5.13
2022-08-01T09:59:01.717Z,7.03
2022-08-01T10:01:47.619Z,8.35
2022-08-01T10:04:22.986Z,5.72
2022-08-01T10:06:55.582Z,5.50
2022-08-01T10:09:39.836Z,5.47
2022-08-01T10:12:09.252Z,4.10
2022-08-01T10:14:46.161Z,6.72
2022-08-01T10:17:18.564Z,5.65
2022-08-01T10:19:47.364Z,4.35
2022-08-01T10:22:18.858Z,5.72
2022-08-01T10:24:48.188Z,8.25
2022-08-01T10:27:24.246Z,7.72
2022-08-01T10:30:19.630Z,6.30
2022-08-01T10:32:50.735Z,7.63
2022-08-01T10:35:19.727Z,7.22
2022-08-01T10:38:05.967Z,7.32
2022-08-01T10:40:33.269Z,5.18
2022-08-01T10:43:02.238Z,5.25
2022-08-01T10:45:30.657Z,4.78
2022-08-01T10:48:21.394Z,3.55
2022-08-01T10:50:50.328Z,6.75
2022-08-01T10:53:31.296Z,4.70
2022-08-01T10:56:12.688Z,10.15
2022-08-01T10:58:44.463Z,5.32
2022-08-01T11:01:28.003Z,5.38
2022-08-01T11:04:07.183Z,3.97
2022-08-01T11:06:33.639Z,6.65
2022-08-01T11:09:03.490Z,7.78
2022-08-01T11:11:37.506Z,4.93
2022-08-01T11:14:10.528Z,6.22
2022-08-01T11:16:38.409Z,6.28
2022-08-01T11:19:06.176Z,6.18
2022-08-01T11:21:57.381Z,6.38
2022-08-01T11:24:50.967Z,5.60
2022-08-01T11:27:25.554Z,4.82
2022-08-01T11:30:13.369Z,5.05
2022-08-01T11:33:11.403Z,4.75
2022-08-01T11:35:59.111Z,5.15
2022-08-01T11:38:29.118Z,3.50
2022-08-01T11:41:13.800Z,3.97
2022-08-01T11:44:11.788Z,7.80
2022-08-01T11:47:01.834Z,8.30
2022-08-01T11:49:38.985Z,8.43
2022-08-01T11:52:17.159Z,6.50
2022-08-01T11:54:48.698Z,4.15
2022-08-01T11:57:20.112Z,5.43
2022-08-01T12:00:03.805Z,4.35
2022-08-01T12:02:35.125Z,3.53
2022-08-01T12:05:11.983Z,4.78
2022-08-01T12:07:40.033Z,5.50
2022-08-01T12:10:09.334Z,6.95
2022-08-01T12:12:37.497Z,6.95
2022-08-01T12:15:09.952Z,7.85
2022-08-01T12:17:58.847Z,9.85
2022-08-01T12:20:34.237Z,8.20
2022-08-01T12:23:03.107Z,6.00
2022-08-01T12:25:30.294Z,5.53
2022-08-01T12:28:01.330Z,5.88
2022-08-01T12:30:28.199Z,5.93
2022-08-01T12:32:55.885Z,4.50
2022-08-01T12:35:28.503Z,6.55
2022-08-01T12:38:03.527Z,4.03
2022-08-01T12:40:33.637Z,5.50
2022-08-01T12:43:01.581Z,10.45
2022-08-01T12:45:31.611Z,7.35
2022-08-01T12:48:00.609Z,4.55
2022-08-01T12:50:30.868Z,7.93
2022-08-01T12:52:58.527Z,8.35
2022-08-01T12:55:33.819Z,3.58
2022-08-01T12:58:13.918Z,5.50
2022-08-01T13:00:45.178Z,6.70
2022-08-01T13:03:20.300Z,4.70
2022-08-01T13:05:57.748Z,3.85
2022-08-01T13:08:30.054Z,4.75
2022-08-01T13:11:05.835Z,4.57
2022-08-01T13:13:41.286Z,5.70
2022-08-01T13:16:12.349Z,5.68
2022-08-01T13:18:50.678Z,5.13
2022-08-01T13:21:28.381Z,5.13
2022-08-01T13:24:14.380Z,5.70
2022-08-01T13:26:52.352Z,5.50
2022-08-01T13:29:35.579Z,3.33
2022-08-01T13:32:29.924Z,2.55
2022-08-01T13:35:05.983Z,4.28
2022-08-01T13:37:32.981Z,3.38
2022-08-01T13:39:59.924Z,6.53
2022-08-01T13:42:26.446Z,4.97
2022-08-01T13:44:52.984Z,6.93
2022-08-01T13:47:19.472Z,3.53
2022-08-01T13:50:01.605Z,3.20
2022-08-01T13:52:28.570Z,4.05
2022-08-01T13:54:55.210Z,4.65
2022-08-01T13:57:22.885Z,5.38
2022-08-01T13:59:49.710Z,3.38
2022-08-01T14:02:16.291Z,4.25
2022-08-01T14:04:43.183Z,3.97
2022-08-01T14:07:14.427Z,3.97
2022-08-01T14:09:57.705Z,3.25
2022-08-01T14:12:27.950Z,2.92
2022-08-01T14:14:54.435Z,2.92
2022-08-01T14:17:21.031Z,4.38
2022-08-01T14:19:48.603Z,3.38
2022-08-01T14:22:15.154Z,4.68
2022-08-01T14:24:41.930Z,3.10
2022-08-01T14:27:08.515Z,3.35
2022-08-01T14:30:02.328Z,3.50
2022-08-01T14:32:22.376Z,1.75
2022-08-01T14:34:55.304Z,1.92
2022-08-01T14:37:21.968Z,3.08
2022-08-01T14:39:54.627Z,2.40
2022-08-01T14:42:21.266Z,2.08
2022-08-01T14:44:49.958Z,3.90
2022-08-01T14:47:22.361Z,3.42
2022-08-01T14:49:50.024Z,4.25
2022-08-01T14:52:17.055Z,3.03
2022-08-01T14:54:43.616Z,2.22
2022-08-01T14:57:10.496Z,2.88
2022-08-01T14:59:37.189Z,3.97
2022-08-01T15:02:03.933Z,3.85
2022-08-01T15:04:31.519Z,4.50
2022-08-01T15:06:58.159Z,2.53
2022-08-01T15:09:24.656Z,6.10
2022-08-01T15:11:51.137Z,2.53
2022-08-01T15:14:35.991Z,4.13
2022-08-01T15:17:02.506Z,1.98
2022-08-01T15:19:29.031Z,2.67
2022-08-01T15:21:55.529Z,2.08
2022-08-01T15:24:21.980Z,5.13
2022-08-01T15:26:48.466Z,4.40
2022-08-01T15:29:16.561Z,2.78
2022-08-01T15:31:43.154Z,1.98
2022-08-01T15:34:09.707Z,2.88
2022-08-01T15:36:36.376Z,1.70
2022-08-01T15:39:09.707Z,2.30
2022-08-01T15:41:36.235Z,4.10
2022-08-01T15:44:02.888Z,2.58
2022-08-01T15:46:29.694Z,2.15
2022-08-01T15:48:56.369Z,2.33
2022-08-01T15:51:23.423Z,4.18
2022-08-01T15:53:50.091Z,1.50
2022-08-01T15:56:16.584Z,3.22
2022-08-01T15:58:43.050Z,3.17
2022-08-01T16:01:09.538Z,3.05
2022-08-01T16:03:36.017Z,1.85
2022-08-01T16:06:02.797Z,2.05
2022-08-01T16:08:29.350Z,2.42
2022-08-01T16:10:55.881Z,1.77
2022-08-01T16:13:22.356Z,2.05
2022-08-01T16:15:48.849Z,3.00
2022-08-01T16:18:16.178Z,3.03
2022-08-01T16:20:45.786Z,2.10
2022-08-01T16:23:14.463Z,2.75
2022-08-01T16:25:41.177Z,1.98
2022-08-01T16:28:09.164Z,2.15
2022-08-01T16:30:35.706Z,3.70
2022-08-01T16:33:04.937Z,2.30
2022-08-01T16:35:40.089Z,1.73
2022-08-01T16:38:08.900Z,2.17
2022-08-01T16:40:47.313Z,1.65
2022-08-01T16:43:15.600Z,2.05
2022-08-01T16:45:44.656Z,2.30
2022-08-01T16:48:12.549Z,1.02
2022-08-01T16:50:39.304Z,1.55
2022-08-01T16:53:05.793Z,2.45
2022-08-01T16:55:49.560Z,2.40
2022-08-01T16:58:27.119Z,2.00
2022-08-01T17:00:56.565Z,3.05
2022-08-01T17:03:46.643Z,1.98
2022-08-01T17:06:10.844Z,2.83
2022-08-01T17:08:37.386Z,2.13
2022-08-01T17:11:13.865Z,1.80
2022-08-01T17:13:40.394Z,1.63
2022-08-01T17:16:08.367Z,2.90
2022-08-01T17:18:35.118Z,2.08
2022-08-01T17:21:01.663Z,1.83
2022-08-01T17:23:28.184Z,2.45
2022-08-01T17:25:54.665Z,1.80
2022-08-01T17:28:23.132Z,1.67
2022-08-01T17:30:49.861Z,2.63
2022-08-01T17:33:16.384Z,2.55
2022-08-01T17:35:42.990Z,1.73
2022-08-01T17:38:09.568Z,2.67
2022-08-01T17:40:40.771Z,1.10
2022-08-01T17:43:07.884Z,3.45
2022-08-01T17:45:38.097Z,1.25
2022-08-01T17:48:16.501Z,1.90
2022-08-01T17:50:47.538Z,1.02
2022-08-01T17:53:15.614Z,2.10
2022-08-01T17:55:53.502Z,3.38
2022-08-01T17:58:50.199Z,1.85
2022-08-01T18:01:10.323Z,1.20
2022-08-01T18:03:41.295Z,3.20
2022-08-01T18:06:09.745Z,2.47
2022-08-01T18:08:36.341Z,4.00
2022-08-01T18:11:02.887Z,1.42
2022-08-01T18:13:29.515Z,2.63
2022-08-01T18:15:56.699Z,1.80
2022-08-01T18:18:33.201Z,2.55
2022-08-01T18:21:01.458Z,1.75
2022-08-01T18:23:27.954Z,1.45
2022-08-01T18:25:54.570Z,1.60
2022-08-01T18:28:31.133Z,1.90
2022-08-01T18:30:59.610Z,2.55
2022-08-01T18:33:26.105Z,1.50
2022-08-01T18:35:53.980Z,3.25
2022-08-01T18:38:20.712Z,1.85
2022-08-01T18:40:51.107Z,5.03
2022-08-01T18:43:17.871Z,7.35
2022-08-01T18:45:44.928Z,1.88
2022-08-01T18:48:11.909Z,2.65
2022-08-01T18:50:39.608Z,4.65
2022-08-01T18:53:06.559Z,3.78
2022-08-01T18:55:33.107Z,3.72
2022-08-01T18:57:59.580Z,1.77
2022-08-01T19:00:26.037Z,4.07
2022-08-01T19:02:53.164Z,3.58
2022-08-01T19:05:19.862Z,2.78
2022-08-01T19:08:04.945Z,3.33
2022-08-01T19:10:34.240Z,5.55
2022-08-01T19:13:01.363Z,3.45
2022-08-01T19:15:27.840Z,5.47
2022-08-01T19:17:54.310Z,4.43
2022-08-01T19:20:20.874Z,7.07
2022-08-01T19:22:47.500Z,4.90
2022-08-01T19:25:15.639Z,5.68
2022-08-01T19:27:49.672Z,3.60
2022-08-01T19:30:17.758Z,3.83
2022-08-01T19:32:46.206Z,3.17
2022-08-01T19:35:15.111Z,1.67
2022-08-01T19:37:52.607Z,2.30
2022-08-01T19:40:27.522Z,2.78
2022-08-01T19:42:56.251Z,3.50
2022-08-01T19:45:23.133Z,2.05
2022-08-01T19:47:56.676Z,3.50
2022-08-01T19:50:27.115Z,2.88
2022-08-01T19:52:55.655Z,3.17
2022-08-01T19:55:24.542Z,3.05
2022-08-01T19:58:17.288Z,1.25
2022-08-01T20:00:40.137Z,1.10
2022-08-01T20:03:07.508Z,2.22
2022-08-01T20:05:36.460Z,0.75
2022-08-01T20:08:03.326Z,2.65
2022-08-01T20:10:32.024Z,3.38
2022-08-01T20:12:58.796Z,3.75
2022-08-01T20:15:25.569Z,1.58
2022-08-01T20:17:52.065Z,4.25
2022-08-01T20:20:18.672Z,2.13
2022-08-01T20:22:47.716Z,4.13
2022-08-01T20:25:14.919Z,1.50
2022-08-01T20:27:44.454Z,1.63
2022-08-01T20:30:12.809Z,2.10
2022-08-01T20:32:40.921Z,1.60
2022-08-01T20:35:08.096Z,2.50
2022-08-01T20:38:03.881Z,1.85
2022-08-01T20:40:26.992Z,1.10
2022-08-01T20:42:53.990Z,2.85
2022-08-01T20:45:22.119Z,1.80
2022-08-01T20:47:49.883Z,1.77
2022-08-01T20:50:52.404Z,1.80
2022-08-01T20:53:22.139Z,2.63
2022-08-01T20:55:53.431Z,1.45
2022-08-01T20:58:30.296Z,2.45
2022-08-01T21:01:00.240Z,2.95
2022-08-01T21:03:36.326Z,0.80
2022-08-01T21:06:11.422Z,1.05
2022-08-01T21:08:43.875Z,1.30
2022-08-01T21:11:17.151Z,2.80
2022-08-01T21:13:49.118Z,1.60
2022-08-01T21:16:25.015Z,2.80
2022-08-01T21:21:54.917Z,2.85
2022-08-01T21:24:24.721Z,4.32
2022-08-01T21:26:52.060Z,2.60
2022-08-01T21:29:20.180Z,2.90
2022-08-01T21:32:08.279Z,1.75
2022-08-01T21:34:38.485Z,2.92
2022-08-01T21:37:09.704Z,2.50
2022-08-01T21:39:37.339Z,2.03
2022-08-01T21:42:11.272Z,1.75
2022-08-01T21:44:43.302Z,1.33
2022-08-01T21:47:12.002Z,2.67
2022-08-01T21:49:40.590Z,6.15
2022-08-01T21:52:18.183Z,2.78
2022-08-01T21:54:57.660Z,2.97
2022-08-01T21:57:59.330Z,2.20
2022-08-01T22:00:26.460Z,2.25
2022-08-01T22:03:11.708Z,2.72
2022-08-01T22:05:49.454Z,2.47
2022-08-01T22:08:27.061Z,3.45
2022-08-01T22:10:59.141Z,2.53
2022-08-01T22:13:25.734Z,3.65
2022-08-01T22:15:56.209Z,2.70
2022-08-01T22:18:22.860Z,2.03
2022-08-01T22:20:49.647Z,3.35
2022-08-01T22:23:17.675Z,3.25
2022-08-01T22:25:45.618Z,3.15
2022-08-01T22:28:16.004Z,12.20
2022-08-01T22:30:43.059Z,1.77
2022-08-01T22:33:16.906Z,3.67
2022-08-01T22:35:55.255Z,5.85
2022-08-01T22:38:23.517Z,2.53
2022-08-01T22:40:53.814Z,3.13
2022-08-01T22:43:57.854Z,1.80
2022-08-01T22:46:48.620Z,3.70
2022-08-01T22:49:30.827Z,2.80
2022-08-01T22:52:05.841Z,2.25
2022-08-01T22:54:38.307Z,2.63
2022-08-01T22:57:11.583Z,3.10
2022-08-01T23:00:00.508Z,2.10
2022-08-01T23:02:30.753Z,1.73
2022-08-01T23:05:07.712Z,2.38
2022-08-01T23:07:39.570Z,4.53
2022-08-01T23:10:07.448Z,2.95
2022-08-01T23:12:34.297Z,3.10
2022-08-01T23:15:01.765Z,2.25
2022-08-01T23:17:30.956Z,4.18
2022-08-01T23:20:02.267Z,2.08
2022-08-01T23:22:31.559Z,3.40
2022-08-01T23:25:04.638Z,4.15
2022-08-01T23:28:04.202Z,3.28
2022-08-01T23:30:25.797Z,2.53
2022-08-01T23:32:52.427Z,3.65
2022-08-01T23:35:19.322Z,3.45
2022-08-01T23:37:45.883Z,3.08
2022-08-01T23:40:12.884Z,3.85
2022-08-01T23:42:39.530Z,2.20
2022-08-01T23:45:06.856Z,2.17
2022-08-01T23:47:33.515Z,1.52
2022-08-01T23:50:00.052Z,5.25
2022-08-01T23:52:32.318Z,1.38
2022-08-01T23:54:59.740Z,3.40
2022-08-01T23:57:30.097Z,2.45
2022-08-01T23:59:56.565Z,1.63
